createdAt,value
2023-02-03T00:01:50.972Z,24.84
2023-02-03T00:04:20.437Z,24.83
2023-02-03T00:06:50.449Z,24.81
2023-02-03T00:09:20.648Z,24.80
2023-02-03T00:11:50.462Z,24.78
2023-02-03T00:14:20.461Z,24.75
2023-02-03T00:16:51.202Z,24.73
2023-02-03T00:19:20.526Z,24.72
2023-02-03T00:21:49.895Z,24.71
2023-02-03T00:24:21.321Z,24.70
2023-02-03T00:26:52.666Z,24.67
2023-02-03T00:29:23.380Z,24.65
2023-02-03T00:31:52.619Z,24.64
2023-02-03T00:34:21.745Z,24.63
2023-02-03T00:36:50.909Z,24.62
2023-02-03T00:39:20.656Z,24.59
2023-02-03T00:41:50.515Z,24.56
2023-02-03T00:44:20.546Z,24.53
2023-02-03T00:46:50.622Z,24.50
2023-02-03T00:49:20.740Z,24.49
2023-02-03T00:51:50.082Z,24.46
2023-02-03T00:54:22.054Z,24.44
2023-02-03T00:56:51.111Z,24.46
2023-02-03T00:59:20.573Z,24.46
2023-02-03T01:01:51.999Z,24.47
2023-02-03T01:04:21.140Z,24.49
2023-02-03T01:06:50.795Z,24.52
2023-02-03T01:09:21.010Z,24.54
2023-02-03T01:11:52.668Z,24.55
2023-02-03T01:14:22.535Z,24.61
2023-02-03T01:16:51.672Z,24.64
2023-02-03T01:19:57.265Z,24.67
2023-02-03T01:22:26.568Z,24.69
2023-02-03T01:24:55.831Z,24.73
2023-02-03T01:27:24.980Z,24.74
2023-02-03T01:29:54.061Z,24.76
2023-02-03T01:32:23.134Z,24.74
2023-02-03T01:34:52.274Z,24.72
2023-02-03T01:37:21.378Z,24.71
2023-02-03T01:39:50.676Z,24.68
2023-02-03T01:42:20.746Z,24.67
2023-02-03T01:44:52.597Z,24.65
2023-02-03T01:47:23.167Z,24.65
2023-02-03T01:49:53.890Z,24.64
2023-02-03T01:52:22.953Z,24.62
2023-02-03T01:54:52.038Z,24.60
2023-02-03T01:57:22.269Z,24.58
2023-02-03T01:59:51.718Z,24.56
2023-02-03T02:02:21.578Z,24.54
2023-02-03T02:05:00.966Z,24.51
2023-02-03T02:07:30.373Z,24.50
2023-02-03T02:09:59.427Z,24.46
2023-02-03T02:12:28.621Z,24.40
2023-02-03T02:14:57.671Z,24.40
2023-02-03T02:17:40.328Z,24.39
2023-02-03T02:20:13.237Z,24.39
2023-02-03T02:22:46.633Z,24.36
2023-02-03T02:25:20.223Z,24.37
2023-02-03T02:27:50.774Z,24.40
2023-02-03T02:30:24.814Z,24.42
2023-02-03T02:33:01.707Z,24.44
2023-02-03T02:35:50.445Z,24.25
2023-02-03T02:38:27.456Z,24.08
2023-02-03T02:41:07.167Z,24.02
2023-02-03T02:43:46.838Z,24.07
2023-02-03T02:46:16.894Z,24.13
2023-02-03T02:48:47.397Z,24.19
2023-02-03T02:51:19.565Z,24.22
2023-02-03T02:53:50.406Z,24.24
2023-02-03T02:56:25.335Z,24.27
2023-02-03T02:58:54.533Z,24.27
2023-02-03T03:01:23.628Z,24.27
2023-02-03T03:03:55.809Z,24.26
2023-02-03T03:06:26.347Z,24.29
2023-02-03T03:08:56.575Z,24.32
2023-02-03T03:11:26.664Z,24.38
2023-02-03T03:13:55.824Z,24.41
2023-02-03T03:16:25.426Z,24.46
2023-02-03T03:22:05.044Z,24.55
2023-02-03T03:24:36.001Z,24.61
2023-02-03T03:27:12.335Z,24.67
2023-02-03T03:29:42.863Z,24.75
2023-02-03T03:32:11.949Z,24.81
2023-02-03T03:34:41.010Z,24.86
2023-02-03T03:37:17.446Z,24.91
2023-02-03T03:39:56.915Z,24.96
2023-02-03T03:42:31.798Z,25.03
2023-02-03T03:45:02.013Z,25.09
2023-02-03T03:47:32.650Z,25.14
2023-02-03T03:50:01.749Z,25.20
2023-02-03T03:52:31.942Z,25.24
2023-02-03T03:55:01.404Z,25.13
2023-02-03T03:57:37.994Z,25.15
2023-02-03T04:00:07.527Z,25.18
2023-02-03T04:02:36.763Z,25.25
2023-02-03T04:05:06.132Z,25.28
2023-02-03T04:07:44.838Z,25.28
2023-02-03T04:10:21.399Z,25.27
2023-02-03T04:12:51.119Z,25.25
2023-02-03T04:15:20.240Z,25.23
2023-02-03T04:17:50.095Z,25.22
2023-02-03T04:20:19.442Z,25.20
2023-02-03T04:22:49.223Z,25.16
2023-02-03T04:25:19.284Z,25.15
2023-02-03T04:27:49.335Z,25.09
2023-02-03T04:30:19.497Z,25.09
2023-02-03T04:32:49.237Z,25.08
2023-02-03T04:35:18.550Z,25.04
2023-02-03T04:37:49.756Z,25.02
2023-02-03T04:40:19.543Z,24.97
2023-02-03T04:42:51.405Z,24.95
2023-02-03T04:45:20.890Z,24.92
2023-02-03T04:47:54.048Z,24.87
2023-02-03T04:50:24.554Z,24.84
2023-02-03T04:52:54.416Z,24.83
2023-02-03T04:55:23.487Z,24.80
2023-02-03T04:57:56.280Z,24.77
2023-02-03T05:00:28.050Z,24.74
2023-02-03T05:02:57.465Z,24.70
2023-02-03T05:08:15.122Z,24.66
2023-02-03T05:10:44.198Z,24.62
2023-02-03T05:13:13.410Z,24.61
2023-02-03T05:15:42.429Z,24.58
2023-02-03T05:18:11.529Z,24.54
2023-02-03T05:20:40.745Z,24.52
2023-02-03T05:23:09.782Z,24.48
2023-02-03T05:25:38.888Z,24.45
2023-02-03T05:28:08.131Z,24.43
2023-02-03T05:30:37.321Z,24.41
2023-02-03T05:33:06.568Z,24.38
2023-02-03T05:35:35.729Z,24.33
2023-02-03T05:38:04.799Z,24.30
2023-02-03T05:40:51.260Z,24.27
2023-02-03T05:43:20.844Z,24.25
2023-02-03T05:45:50.634Z,24.22
2023-02-03T05:48:20.570Z,24.17
2023-02-03T05:50:50.695Z,24.14
2023-02-03T05:53:20.681Z,24.14
2023-02-03T05:55:50.632Z,24.07
2023-02-03T05:58:20.823Z,24.04
2023-02-03T06:03:38.401Z,23.98
2023-02-03T06:06:07.604Z,23.95
2023-02-03T06:08:36.770Z,23.93
2023-02-03T06:13:53.395Z,23.86
2023-02-03T06:16:22.661Z,23.82
2023-02-03T06:21:40.343Z,23.76
2023-02-03T06:24:09.545Z,23.74
2023-02-03T06:26:38.579Z,23.70
2023-02-03T06:29:07.685Z,23.67
2023-02-03T06:31:36.952Z,23.62
2023-02-03T06:34:06.108Z,23.60
2023-02-03T06:36:35.143Z,23.58
2023-02-03T06:39:04.436Z,23.56
2023-02-03T06:41:33.696Z,23.52
2023-02-03T06:44:02.796Z,23.49
2023-02-03T06:46:32.033Z,23.45
2023-02-03T06:49:01.164Z,23.43
2023-02-03T06:51:30.364Z,23.41
2023-02-03T06:53:59.704Z,23.38
2023-02-03T06:56:31.066Z,23.34
2023-02-03T06:59:00.277Z,23.32
2023-02-03T07:01:30.459Z,23.28
2023-02-03T07:03:59.696Z,23.26
2023-02-03T07:06:30.449Z,23.25
2023-02-03T07:09:01.649Z,23.22
2023-02-03T07:11:30.225Z,23.24
2023-02-03T07:14:00.164Z,23.26
2023-02-03T07:16:29.297Z,23.29
2023-02-03T07:18:58.397Z,23.31
2023-02-03T07:21:27.579Z,23.35
2023-02-03T07:23:56.698Z,23.37
2023-02-03T07:26:29.680Z,23.40
2023-02-03T07:29:00.226Z,23.43
2023-02-03T07:31:29.350Z,23.46
2023-02-03T07:33:58.897Z,23.50
2023-02-03T07:36:29.852Z,23.52
2023-02-03T07:38:58.955Z,23.56
2023-02-03T07:41:28.128Z,23.58
2023-02-03T07:43:57.317Z,23.62
2023-02-03T07:46:26.460Z,23.64
2023-02-03T07:48:55.771Z,23.67
2023-02-03T07:51:24.829Z,23.70
2023-02-03T07:53:53.869Z,23.73
2023-02-03T07:56:23.029Z,23.76
2023-02-03T07:58:53.560Z,23.79
2023-02-03T08:01:22.726Z,23.82
2023-02-03T08:03:54.250Z,23.84
2023-02-03T08:06:22.698Z,23.86
2023-02-03T08:08:52.310Z,23.89
2023-02-03T08:11:22.236Z,23.91
2023-02-03T08:13:52.235Z,23.95
2023-02-03T08:16:22.518Z,23.97
2023-02-03T08:18:52.247Z,24.00
2023-02-03T08:21:22.276Z,24.03
2023-02-03T08:23:52.350Z,24.06
2023-02-03T08:26:22.254Z,24.08
2023-02-03T08:28:52.289Z,24.12
2023-02-03T08:31:25.156Z,24.13
2023-02-03T08:33:54.395Z,24.16
2023-02-03T08:36:23.470Z,24.19
2023-02-03T08:38:52.633Z,24.21
2023-02-03T08:41:22.294Z,24.23
2023-02-03T08:43:52.452Z,24.21
2023-02-03T08:46:22.469Z,24.18
2023-02-03T08:48:51.752Z,24.16
2023-02-03T08:51:21.509Z,24.12
2023-02-03T08:53:51.637Z,24.06
2023-02-03T08:56:21.439Z,24.05
2023-02-03T08:58:55.914Z,24.00
2023-02-03T09:01:24.815Z,23.97
2023-02-03T09:03:54.156Z,23.94
2023-02-03T09:06:25.249Z,23.93
2023-02-03T09:08:54.137Z,23.87
2023-02-03T09:11:23.265Z,23.86
2023-02-03T09:13:52.484Z,23.81
2023-02-03T09:16:25.439Z,23.78
2023-02-03T09:18:54.913Z,23.73
2023-02-03T09:21:34.069Z,23.72
2023-02-03T09:23:56.137Z,23.68
2023-02-03T09:26:26.056Z,23.66
2023-02-03T09:28:55.374Z,23.65
2023-02-03T09:31:24.788Z,23.67
2023-02-03T09:33:54.181Z,23.69
2023-02-03T09:36:23.466Z,23.72
2023-02-03T09:38:52.937Z,23.74
2023-02-03T09:41:26.293Z,23.76
2023-02-03T09:44:01.382Z,23.79
2023-02-03T09:46:32.307Z,23.81
2023-02-03T09:49:04.810Z,23.79
2023-02-03T09:51:38.534Z,23.79
2023-02-03T09:54:09.198Z,23.77
2023-02-03T09:56:38.690Z,23.75
2023-02-03T09:59:07.886Z,23.73
2023-02-03T10:01:38.519Z,23.67
2023-02-03T10:04:19.859Z,23.66
2023-02-03T10:06:49.950Z,23.64
2023-02-03T10:09:27.262Z,23.61
2023-02-03T10:12:14.325Z,23.57
2023-02-03T10:15:03.538Z,23.55
2023-02-03T10:17:33.308Z,23.52
2023-02-03T10:20:06.831Z,23.48
2023-02-03T10:22:36.832Z,23.45
2023-02-03T10:25:10.073Z,23.42
2023-02-03T10:27:39.655Z,23.39
2023-02-03T10:30:10.366Z,23.35
2023-02-03T10:32:39.708Z,23.33
2023-02-03T10:35:10.404Z,23.31
2023-02-03T10:37:40.729Z,23.27
2023-02-03T10:40:11.490Z,23.25
2023-02-03T10:42:42.093Z,23.22
2023-02-03T10:45:12.793Z,23.19
2023-02-03T10:47:43.533Z,23.17
2023-02-03T10:50:19.712Z,23.14
2023-02-03T10:52:49.313Z,23.10
2023-02-03T10:55:29.107Z,23.07
2023-02-03T10:57:58.297Z,23.05
2023-02-03T11:00:31.154Z,23.01
2023-02-03T11:03:05.138Z,22.98
2023-02-03T11:05:34.422Z,22.96
2023-02-03T11:08:06.127Z,22.93
2023-02-03T11:10:41.769Z,22.90
2023-02-03T11:13:21.440Z,22.88
2023-02-03T11:15:55.205Z,22.87
2023-02-03T11:18:44.355Z,22.83
2023-02-03T11:21:16.549Z,22.81
2023-02-03T11:23:54.459Z,22.76
2023-02-03T11:26:25.004Z,22.73
2023-02-03T11:28:54.931Z,22.72
2023-02-03T11:31:27.918Z,22.70
2023-02-03T11:33:58.672Z,22.67
2023-02-03T11:36:31.000Z,22.63
2023-02-03T11:39:12.933Z,22.63
2023-02-03T11:41:42.384Z,22.64
2023-02-03T11:47:18.753Z,22.68
2023-02-03T11:49:55.090Z,22.73
2023-02-03T11:52:31.376Z,22.78
2023-02-03T11:55:21.780Z,22.84
2023-02-03T11:57:52.768Z,22.92
2023-02-03T12:00:38.557Z,22.97
2023-02-03T12:06:26.396Z,23.26
2023-02-03T12:08:59.972Z,23.28
2023-02-03T12:11:39.939Z,23.36
2023-02-03T12:17:15.928Z,23.54
2023-02-03T12:19:46.572Z,23.62
2023-02-03T12:22:20.288Z,23.69
2023-02-03T12:25:02.585Z,23.78
2023-02-03T12:27:49.719Z,23.86
2023-02-03T12:30:21.362Z,23.94
2023-02-03T12:32:52.032Z,24.02
2023-02-03T12:35:31.659Z,24.10
2023-02-03T12:38:03.739Z,24.19
2023-02-03T12:40:49.132Z,24.27
2023-02-03T12:43:19.182Z,24.33
2023-02-03T12:45:50.138Z,24.39
2023-02-03T12:48:20.562Z,24.46
2023-02-03T12:50:53.078Z,24.52
2023-02-03T12:53:28.896Z,24.57
2023-02-03T12:56:02.452Z,24.61
2023-02-03T12:58:34.584Z,24.65
2023-02-03T13:01:08.135Z,24.68
2023-02-03T13:03:55.554Z,24.71
2023-02-03T13:06:44.804Z,24.74
2023-02-03T13:09:33.871Z,24.80
2023-02-03T13:12:07.385Z,24.88
2023-02-03T13:14:54.511Z,24.94
2023-02-03T13:17:28.400Z,24.99
2023-02-03T13:19:58.133Z,25.04
2023-02-03T13:22:27.527Z,25.07
2023-02-03T13:24:58.151Z,25.09
2023-02-03T13:27:40.911Z,25.13
2023-02-03T13:30:28.160Z,25.18
2023-02-03T13:33:01.700Z,25.25
2023-02-03T13:35:48.492Z,25.31
2023-02-03T13:38:22.102Z,25.35
2023-02-03T13:41:08.674Z,25.37
2023-02-03T13:43:39.295Z,25.40
2023-02-03T13:46:12.778Z,25.46
2023-02-03T13:48:42.052Z,25.47
2023-02-03T13:51:12.725Z,25.49
2023-02-03T13:53:42.188Z,25.53
2023-02-03T13:56:12.731Z,25.58
2023-02-03T13:58:42.141Z,25.63
2023-02-03T14:01:31.029Z,25.67
2023-02-03T14:04:00.411Z,25.71
2023-02-03T14:06:31.215Z,25.73
2023-02-03T14:09:03.493Z,25.73
2023-02-03T14:11:37.082Z,25.79
2023-02-03T14:14:14.155Z,25.80
2023-02-03T14:16:43.679Z,25.82
2023-02-03T14:19:13.255Z,25.84
2023-02-03T14:21:52.921Z,25.86
2023-02-03T14:24:22.767Z,25.88
2023-02-03T14:26:56.046Z,25.90
2023-02-03T14:29:28.874Z,25.94
2023-02-03T14:31:58.964Z,25.98
2023-02-03T14:34:38.759Z,25.99
2023-02-03T14:37:26.812Z,26.02
2023-02-03T14:40:00.193Z,26.04
2023-02-03T14:42:36.861Z,26.05
2023-02-03T14:45:23.881Z,26.08
2023-02-03T14:48:06.821Z,26.10
2023-02-03T14:50:43.556Z,26.11
2023-02-03T14:53:14.296Z,26.15
2023-02-03T14:55:53.920Z,26.17
2023-02-03T14:58:25.319Z,26.17
2023-02-03T15:00:55.994Z,26.19
2023-02-03T15:03:26.376Z,26.21
2023-02-03T15:05:56.774Z,26.24
2023-02-03T15:08:36.974Z,26.25
2023-02-03T15:11:19.555Z,26.26
2023-02-03T15:13:48.870Z,26.28
2023-02-03T15:16:19.651Z,26.30
2023-02-03T15:18:50.310Z,26.33
2023-02-03T15:21:20.191Z,26.34
2023-02-03T15:23:50.262Z,26.35
2023-02-03T15:26:20.919Z,26.36
2023-02-03T15:29:00.106Z,26.39
2023-02-03T15:31:32.461Z,26.41
2023-02-03T15:34:03.024Z,26.43
2023-02-03T15:36:34.963Z,26.45
2023-02-03T15:39:11.701Z,26.46
2023-02-03T15:41:41.021Z,26.49
2023-02-03T15:44:16.427Z,26.50
2023-02-03T15:46:48.125Z,26.51
2023-02-03T15:49:20.087Z,26.53
2023-02-03T15:51:50.739Z,26.56
2023-02-03T15:54:25.657Z,26.58
2023-02-03T15:57:09.561Z,26.57
2023-02-03T15:59:43.483Z,26.55
2023-02-03T16:02:20.457Z,26.47
2023-02-03T16:04:53.479Z,26.41
2023-02-03T16:07:23.699Z,26.36
2023-02-03T16:09:54.959Z,26.31
2023-02-03T16:12:25.353Z,26.28
2023-02-03T16:14:54.588Z,26.24
2023-02-03T16:17:25.342Z,26.21
2023-02-03T16:19:54.599Z,26.17
2023-02-03T16:22:30.348Z,26.15
2023-02-03T16:24:59.647Z,26.11
2023-02-03T16:27:30.285Z,26.09
2023-02-03T16:30:27.637Z,26.06
2023-02-03T16:33:30.858Z,26.03
2023-02-03T16:36:18.204Z,25.97
2023-02-03T16:39:06.347Z,25.94
2023-02-03T16:41:53.096Z,25.92
2023-02-03T16:44:40.211Z,25.86
2023-02-03T16:47:37.362Z,25.84
2023-02-03T16:50:37.419Z,25.80
2023-02-03T16:52:54.939Z,25.77
2023-02-03T16:55:25.441Z,25.72
2023-02-03T16:57:55.481Z,25.69
2023-02-03T17:00:24.998Z,25.65
2023-02-03T17:02:55.292Z,25.62
2023-02-03T17:05:25.765Z,25.59
2023-02-03T17:07:55.744Z,25.57
2023-02-03T17:10:25.214Z,25.55
2023-02-03T17:12:55.232Z,25.54
2023-02-03T17:15:24.503Z,25.49
2023-02-03T17:17:54.587Z,25.46
2023-02-03T17:20:24.473Z,25.43
2023-02-03T17:22:58.274Z,25.37
2023-02-03T17:25:28.048Z,25.36
2023-02-03T17:27:57.706Z,25.36
2023-02-03T17:30:27.328Z,25.32
2023-02-03T17:32:59.317Z,25.31
2023-02-03T17:35:27.746Z,25.27
2023-02-03T17:37:57.046Z,25.25
2023-02-03T17:54:18.930Z,25.16
2023-02-03T17:56:52.404Z,25.19
2023-02-03T17:59:22.040Z,25.23
2023-02-03T18:01:51.996Z,25.25
2023-02-03T18:04:22.035Z,25.28
2023-02-03T18:06:51.907Z,25.29
2023-02-03T18:09:21.963Z,25.31
2023-02-03T18:11:52.277Z,25.36
2023-02-03T18:14:21.934Z,25.37
2023-02-03T18:16:51.925Z,25.39
2023-02-03T18:19:22.246Z,25.43
2023-02-03T18:21:52.022Z,25.47
2023-02-03T18:24:23.315Z,25.50
2023-02-03T18:26:53.122Z,25.51
2023-02-03T18:29:22.928Z,25.55
2023-02-03T18:31:53.202Z,25.58
2023-02-03T18:34:25.860Z,25.62
2023-02-03T18:36:55.113Z,25.64
2023-02-03T18:39:24.777Z,25.68
2023-02-03T18:41:54.870Z,25.71
2023-02-03T18:44:27.586Z,25.73
2023-02-03T18:46:56.754Z,25.78
2023-02-03T18:49:26.058Z,25.82
2023-02-03T18:51:55.367Z,25.85
2023-02-03T18:54:24.786Z,25.88
2023-02-03T18:56:54.786Z,25.91
2023-02-03T18:59:24.704Z,25.94
2023-02-03T19:01:54.931Z,25.92
2023-02-03T19:04:24.983Z,25.90
2023-02-03T19:06:54.374Z,25.86
2023-02-03T19:09:24.724Z,25.85
2023-02-03T19:11:55.017Z,25.81
2023-02-03T19:14:25.627Z,25.80
2023-02-03T19:16:55.286Z,25.78
2023-02-03T19:19:24.824Z,25.76
2023-02-03T19:21:54.689Z,25.72
2023-02-03T19:24:25.528Z,25.70
2023-02-03T19:26:55.035Z,25.70
2023-02-03T19:29:25.307Z,25.69
2023-02-03T19:31:55.167Z,25.67
2023-02-03T19:34:28.478Z,25.64
2023-02-03T19:37:00.130Z,25.61
2023-02-03T19:39:29.247Z,25.60
2023-02-03T19:41:58.421Z,25.58
2023-02-03T19:44:27.796Z,25.58
2023-02-03T19:46:56.947Z,25.58
2023-02-03T19:49:26.251Z,25.57
2023-02-03T19:51:55.576Z,25.56
2023-02-03T19:54:24.829Z,25.54
2023-02-03T19:56:54.626Z,25.53
2023-02-03T19:59:24.288Z,25.51
2023-02-03T20:01:55.394Z,25.50
2023-02-03T20:04:25.601Z,25.47
2023-02-03T20:06:55.216Z,25.46
2023-02-03T20:09:25.238Z,25.45
2023-02-03T20:11:56.683Z,25.45
2023-02-03T20:14:25.894Z,25.41
2023-02-03T20:16:55.584Z,25.39
2023-02-03T20:19:27.766Z,25.38
2023-02-03T20:21:57.244Z,25.36
2023-02-03T20:24:26.502Z,25.35
2023-02-03T20:26:55.996Z,25.35
2023-02-03T20:29:25.471Z,25.33
2023-02-03T20:31:55.791Z,25.32
2023-02-03T20:34:25.293Z,25.30
2023-02-03T20:36:59.929Z,25.29
2023-02-03T20:39:30.886Z,25.28
2023-02-03T20:42:00.196Z,25.24
2023-02-03T20:44:31.717Z,25.24
2023-02-03T20:47:00.912Z,25.23
2023-02-03T20:49:30.281Z,25.22
2023-02-03T20:51:59.538Z,25.20
2023-02-03T20:54:28.920Z,25.19
2023-02-03T20:56:58.146Z,25.16
2023-02-03T20:59:27.406Z,25.19
2023-02-03T21:01:56.839Z,25.17
2023-02-03T21:04:43.663Z,25.18
2023-02-03T21:07:14.762Z,25.17
2023-02-03T21:09:44.035Z,25.19
2023-02-03T21:12:13.990Z,25.18
2023-02-03T21:14:43.872Z,25.18
2023-02-03T21:17:23.814Z,25.17
2023-02-03T21:19:53.700Z,25.16
2023-02-03T21:22:24.452Z,25.11
2023-02-03T21:24:58.422Z,24.92
2023-02-03T21:27:28.572Z,24.74
2023-02-03T21:29:58.478Z,24.78
2023-02-03T21:32:28.166Z,24.83
2023-02-03T21:34:57.295Z,24.87
2023-02-03T21:37:28.176Z,24.90
2023-02-03T21:39:57.680Z,24.92
2023-02-03T21:42:42.959Z,24.94
2023-02-03T21:45:21.304Z,24.96
2023-02-03T21:47:51.197Z,24.96
2023-02-03T21:50:36.106Z,24.96
2023-02-03T21:53:09.050Z,24.97
2023-02-03T21:55:38.284Z,25.00
2023-02-03T21:58:08.885Z,25.01
2023-02-03T22:00:43.036Z,25.03
2023-02-03T22:03:13.736Z,25.04
2023-02-03T22:05:43.074Z,25.05
2023-02-03T22:08:19.934Z,25.05
2023-02-03T22:10:51.562Z,25.01
2023-02-03T22:13:21.128Z,24.91
2023-02-03T22:15:53.973Z,24.92
2023-02-03T22:18:23.784Z,24.93
2023-02-03T22:20:53.765Z,24.92
2023-02-03T22:23:23.830Z,24.93
2023-02-03T22:25:53.665Z,24.95
2023-02-03T22:28:23.706Z,24.95
2023-02-03T22:30:53.998Z,24.95
2023-02-03T22:33:23.750Z,24.96
2023-02-03T22:35:53.780Z,24.97
2023-02-03T22:38:23.958Z,24.97
2023-02-03T22:40:53.971Z,24.97
2023-02-03T22:43:23.703Z,24.99
2023-02-03T22:45:54.256Z,25.00
2023-02-03T22:48:26.477Z,25.01
2023-02-03T22:50:55.666Z,24.99
2023-02-03T22:53:25.858Z,25.01
2023-02-03T22:55:55.647Z,25.02
2023-02-03T22:58:25.257Z,25.00
2023-02-03T23:00:54.759Z,25.02
2023-02-03T23:03:24.783Z,25.03
2023-02-03T23:05:54.668Z,25.04
2023-02-03T23:08:24.915Z,25.04
2023-02-03T23:10:54.807Z,24.99
2023-02-03T23:13:24.847Z,25.05
2023-02-03T23:18:30.150Z,25.07
2023-02-03T23:20:59.425Z,25.09
2023-02-03T23:23:28.833Z,25.10
2023-02-03T23:25:58.091Z,25.06
2023-02-03T23:28:27.379Z,25.07
2023-02-03T23:30:57.006Z,25.08
2023-02-03T23:33:26.250Z,25.08
2023-02-03T23:35:57.068Z,25.08
2023-02-03T23:38:26.404Z,25.08
2023-02-03T23:40:56.847Z,25.08
2023-02-03T23:43:26.034Z,25.08
2023-02-03T23:45:55.935Z,25.08
2023-02-03T23:48:25.639Z,25.06
2023-02-03T23:50:54.866Z,25.02
2023-02-03T23:53:24.992Z,25.06
2023-02-03T23:55:55.127Z,25.04
2023-02-03T23:58:24.800Z,25.04
